sensor_id;sensor_type;location;lat;lon;timestamp;pressure;altitude;pressure_sealevel;temperature;humidity
59110;BME280;44895;47.438;18.978;2024-03-06T00:00:11;99885.34;;;6.96;100.00
59110;BME280;44895;47.438;18.978;2024-03-06T00:03:15;99887.53;;;6.83;100.00
59110;BME280;44895;47.438;18.978;2024-03-06T00:06:19;99889.97;;;6.75;100.00
59110;BME280;44895;47.438;18.978;2024-03-06T00:09:24;99893.00;;;6.52;100.00
59110;BME280;44895;47.438;18.978;2024-03-06T00:12:30;99887.03;;;6.56;100.00
59110;BME280;44895;47.438;18.978;2024-03-06T00:15:34;99897.31;;;6.64;100.00
59110;BME280;44895;47.438;18.978;2024-03-06T00:18:38;99895.69;;;6.47;100.00
59110;BME280;44895;47.438;18.978;2024-03-06T00:21:42;99895.69;;;6.27;100.00
59110;BME280;44895;47.438;18.978;2024-03-06T00:24:45;99897.03;;;6.40;100.00
59110;BME280;44895;47.438;18.978;2024-03-06T00:27:50;99903.25;;;6.25;100.00
59110;BME280;44895;47.438;18.978;2024-03-06T00:30:55;99902.69;;;6.12;100.00
59110;BME280;44895;47.438;18.978;2024-03-06T00:33:59;99894.06;;;6.15;100.00
59110;BME280;44895;47.438;18.978;2024-03-06T00:37:03;99908.56;;;5.94;100.00
59110;BME280;44895;47.438;18.978;2024-03-06T00:40:07;99908.88;;;6.02;100.00
59110;BME280;44895;47.438;18.978;2024-03-06T00:43:11;99910.19;;;5.95;100.00
59110;BME280;44895;47.438;18.978;2024-03-06T00:46:14;99920.41;;;5.87;100.00
59110;BME280;44895;47.438;18.978;2024-03-06T00:49:18;99916.56;;;5.63;100.00
59110;BME280;44895;47.438;18.978;2024-03-06T00:52:22;99918.50;;;5.78;100.00
59110;BME280;44895;47.438;18.978;2024-03-06T00:55:26;99917.03;;;5.44;100.00
59110;BME280;44895;47.438;18.978;2024-03-06T00:58:30;99915.44;;;5.48;100.00
59110;BME280;44895;47.438;18.978;2024-03-06T01:01:34;99920.34;;;5.62;100.00
59110;BME280;44895;47.438;18.978;2024-03-06T01:04:37;99908.13;;;5.38;100.00
59110;BME280;44895;47.438;18.978;2024-03-06T01:07:41;99918.72;;;5.66;100.00
59110;BME280;44895;47.438;18.978;2024-03-06T01:10:45;99914.06;;;5.46;100.00
59110;BME280;44895;47.438;18.978;2024-03-06T01:13:49;99910.06;;;5.53;100.00
59110;BME280;44895;47.438;18.978;2024-03-06T01:16:52;99924.09;;;5.55;100.00
59110;BME280;44895;47.438;18.978;2024-03-06T01:19:56;99919.91;;;5.22;100.00
59110;BME280;44895;47.438;18.978;2024-03-06T01:23:00;99932.63;;;5.37;100.00
59110;BME280;44895;47.438;18.978;2024-03-06T01:26:04;99927.19;;;5.27;100.00
59110;BME280;44895;47.438;18.978;2024-03-06T01:29:08;99932.34;;;5.33;100.00
59110;BME280;44895;47.438;18.978;2024-03-06T01:32:11;99923.13;;;5.24;100.00
59110;BME280;44895;47.438;18.978;2024-03-06T01:35:16;99916.94;;;5.18;100.00
59110;BME280;44895;47.438;18.978;2024-03-06T01:38:20;99914.63;;;4.95;100.00
59110;BME280;44895;47.438;18.978;2024-03-06T01:41:24;99928.50;;;4.76;100.00
59110;BME280;44895;47.438;18.978;2024-03-06T01:44:28;99923.34;;;5.07;100.00
59110;BME280;44895;47.438;18.978;2024-03-06T01:47:31;99922.66;;;4.84;100.00
59110;BME280;44895;47.438;18.978;2024-03-06T01:50:35;99926.00;;;5.02;100.00
59110;BME280;44895;47.438;18.978;2024-03-06T01:53:39;99919.94;;;4.79;100.00
59110;BME280;44895;47.438;18.978;2024-03-06T01:56:47;99927.78;;;4.86;100.00
59110;BME280;44895;47.438;18.978;2024-03-06T01:59:53;99921.03;;;4.83;100.00
59110;BME280;44895;47.438;18.978;2024-03-06T02:02:57;99926.84;;;4.70;100.00
59110;BME280;44895;47.438;18.978;2024-03-06T02:06:02;99938.44;;;4.70;100.00
59110;BME280;44895;47.438;18.978;2024-03-06T02:09:05;99931.22;;;4.81;100.00
59110;BME280;44895;47.438;18.978;2024-03-06T02:12:10;99934.50;;;4.51;100.00
59110;BME280;44895;47.438;18.978;2024-03-06T02:15:14;99929.84;;;4.73;100.00
59110;BME280;44895;47.438;18.978;2024-03-06T02:18:18;99931.81;;;4.51;100.00
59110;BME280;44895;47.438;18.978;2024-03-06T02:21:23;99933.88;;;4.76;100.00
59110;BME280;44895;47.438;18.978;2024-03-06T02:24:26;99926.53;;;4.29;100.00
59110;BME280;44895;47.438;18.978;2024-03-06T02:27:30;99928.88;;;4.52;100.00
59110;BME280;44895;47.438;18.978;2024-03-06T02:30:35;99924.91;;;4.28;100.00
59110;BME280;44895;47.438;18.978;2024-03-06T02:33:42;99933.13;;;4.48;100.00
59110;BME280;44895;47.438;18.978;2024-03-06T02:36:45;99932.06;;;4.49;100.00
59110;BME280;44895;47.438;18.978;2024-03-06T02:39:49;99937.41;;;4.44;100.00
59110;BME280;44895;47.438;18.978;2024-03-06T02:42:53;99935.66;;;4.28;100.00
59110;BME280;44895;47.438;18.978;2024-03-06T02:45:57;99940.09;;;4.44;100.00
59110;BME280;44895;47.438;18.978;2024-03-06T02:49:00;99921.88;;;4.51;100.00
59110;BME280;44895;47.438;18.978;2024-03-06T02:52:04;99929.66;;;4.48;100.00
59110;BME280;44895;47.438;18.978;2024-03-06T02:55:08;99937.72;;;4.20;100.00
59110;BME280;44895;47.438;18.978;2024-03-06T02:58:12;99938.25;;;4.45;100.00
59110;BME280;44895;47.438;18.978;2024-03-06T03:01:16;99933.13;;;4.16;100.00
59110;BME280;44895;47.438;18.978;2024-03-06T03:04:20;99947.94;;;4.18;100.00
59110;BME280;44895;47.438;18.978;2024-03-06T03:07:24;99943.53;;;4.07;100.00
59110;BME280;44895;47.438;18.978;2024-03-06T03:10:28;99942.81;;;3.89;100.00
59110;BME280;44895;47.438;18.978;2024-03-06T03:13:32;99943.72;;;4.28;100.00
59110;BME280;44895;47.438;18.978;2024-03-06T03:16:35;99941.72;;;4.45;100.00
59110;BME280;44895;47.438;18.978;2024-03-06T03:19:39;99948.03;;;4.01;100.00
59110;BME280;44895;47.438;18.978;2024-03-06T03:22:43;99945.81;;;3.93;100.00
59110;BME280;44895;47.438;18.978;2024-03-06T03:25:48;99950.41;;;3.98;100.00
59110;BME280;44895;47.438;18.978;2024-03-06T03:28:52;99949.19;;;4.38;100.00
59110;BME280;44895;47.438;18.978;2024-03-06T03:31:56;99960.78;;;4.38;100.00
59110;BME280;44895;47.438;18.978;2024-03-06T03:35:00;99961.56;;;4.39;100.00
59110;BME280;44895;47.438;18.978;2024-03-06T03:38:04;99956.88;;;4.56;100.00
59110;BME280;44895;47.438;18.978;2024-03-06T03:41:08;99961.66;;;4.49;100.00
59110;BME280;44895;47.438;18.978;2024-03-06T03:44:17;99967.75;;;4.39;100.00
59110;BME280;44895;47.438;18.978;2024-03-06T03:47:22;99970.72;;;4.11;100.00
59110;BME280;44895;47.438;18.978;2024-03-06T03:50:25;99968.28;;;4.36;100.00
59110;BME280;44895;47.438;18.978;2024-03-06T03:53:29;99975.63;;;4.46;100.00
59110;BME280;44895;47.438;18.978;2024-03-06T03:56:33;99969.28;;;4.30;100.00
59110;BME280;44895;47.438;18.978;2024-03-06T03:59:38;99974.41;;;4.32;100.00
59110;BME280;44895;47.438;18.978;2024-03-06T04:02:42;99969.59;;;4.34;100.00
59110;BME280;44895;47.438;18.978;2024-03-06T04:05:47;99964.88;;;4.46;100.00
59110;BME280;44895;47.438;18.978;2024-03-06T04:08:51;99968.53;;;4.35;100.00
59110;BME280;44895;47.438;18.978;2024-03-06T04:11:54;99971.06;;;4.47;100.00
59110;BME280;44895;47.438;18.978;2024-03-06T04:14:58;99977.50;;;4.46;100.00
59110;BME280;44895;47.438;18.978;2024-03-06T04:18:02;99972.63;;;4.43;100.00
59110;BME280;44895;47.438;18.978;2024-03-06T04:21:06;99983.31;;;4.32;100.00
59110;BME280;44895;47.438;18.978;2024-03-06T04:24:10;99981.09;;;4.56;100.00
59110;BME280;44895;47.438;18.978;2024-03-06T04:27:14;99978.09;;;4.53;100.00
59110;BME280;44895;47.438;18.978;2024-03-06T04:30:19;99983.94;;;4.77;100.00
59110;BME280;44895;47.438;18.978;2024-03-06T04:33:23;99985.31;;;4.80;100.00
59110;BME280;44895;47.438;18.978;2024-03-06T04:36:26;99991.28;;;4.87;100.00
59110;BME280;44895;47.438;18.978;2024-03-06T04:39:32;99983.31;;;5.02;100.00
59110;BME280;44895;47.438;18.978;2024-03-06T04:42:36;99997.00;;;4.96;100.00
59110;BME280;44895;47.438;18.978;2024-03-06T04:45:39;100001.84;;;4.94;100.00
59110;BME280;44895;47.438;18.978;2024-03-06T04:48:43;100003.56;;;5.10;100.00
59110;BME280;44895;47.438;18.978;2024-03-06T04:51:47;100012.81;;;5.19;100.00
59110;BME280;44895;47.438;18.978;2024-03-06T04:54:52;100003.06;;;5.13;100.00
59110;BME280;44895;47.438;18.978;2024-03-06T04:57:56;100011.91;;;5.09;100.00
59110;BME280;44895;47.438;18.978;2024-03-06T05:00:59;100010.34;;;5.18;100.00
59110;BME280;44895;47.438;18.978;2024-03-06T05:04:03;100014.94;;;5.17;100.00
59110;BME280;44895;47.438;18.978;2024-03-06T05:07:07;100020.00;;;4.76;100.00
59110;BME280;44895;47.438;18.978;2024-03-06T05:10:11;100015.69;;;4.75;100.00
59110;BME280;44895;47.438;18.978;2024-03-06T05:13:15;100011.50;;;4.89;100.00
59110;BME280;44895;47.438;18.978;2024-03-06T05:16:18;100003.34;;;4.79;100.00
59110;BME280;44895;47.438;18.978;2024-03-06T05:19:22;100020.28;;;4.80;100.00
59110;BME280;44895;47.438;18.978;2024-03-06T05:22:26;100018.44;;;4.80;100.00
59110;BME280;44895;47.438;18.978;2024-03-06T05:25:29;100018.63;;;4.73;100.00
59110;BME280;44895;47.438;18.978;2024-03-06T05:28:33;100019.72;;;4.72;100.00
59110;BME280;44895;47.438;18.978;2024-03-06T05:31:37;100015.81;;;4.90;100.00
59110;BME280;44895;47.438;18.978;2024-03-06T05:34:41;100020.09;;;4.54;100.00
59110;BME280;44895;47.438;18.978;2024-03-06T05:37:45;100017.66;;;4.52;100.00
59110;BME280;44895;47.438;18.978;2024-03-06T05:40:48;100026.38;;;4.37;100.00
59110;BME280;44895;47.438;18.978;2024-03-06T05:43:52;100019.38;;;4.64;100.00
59110;BME280;44895;47.438;18.978;2024-03-06T05:46:57;100022.38;;;4.40;100.00
59110;BME280;44895;47.438;18.978;2024-03-06T05:50:01;100015.69;;;4.75;100.00
59110;BME280;44895;47.438;18.978;2024-03-06T05:53:07;100021.63;;;4.77;100.00
59110;BME280;44895;47.438;18.978;2024-03-06T05:56:11;100021.50;;;4.94;100.00
59110;BME280;44895;47.438;18.978;2024-03-06T05:59:15;100027.69;;;4.95;100.00
59110;BME280;44895;47.438;18.978;2024-03-06T06:02:20;100026.44;;;5.07;100.00
59110;BME280;44895;47.438;18.978;2024-03-06T06:05:24;100029.16;;;5.13;100.00
59110;BME280;44895;47.438;18.978;2024-03-06T06:08:27;100036.53;;;5.28;100.00
59110;BME280;44895;47.438;18.978;2024-03-06T06:11:32;100037.44;;;5.44;100.00
59110;BME280;44895;47.438;18.978;2024-03-06T06:14:36;100035.75;;;5.75;100.00
59110;BME280;44895;47.438;18.978;2024-03-06T06:17:40;100035.31;;;5.99;100.00
59110;BME280;44895;47.438;18.978;2024-03-06T06:20:46;100037.84;;;6.36;100.00
59110;BME280;44895;47.438;18.978;2024-03-06T06:23:51;100034.38;;;6.46;100.00
59110;BME280;44895;47.438;18.978;2024-03-06T06:26:54;100029.53;;;6.79;100.00
59110;BME280;44895;47.438;18.978;2024-03-06T06:29:58;100037.34;;;7.07;100.00
59110;BME280;44895;47.438;18.978;2024-03-06T06:33:02;100029.44;;;7.62;100.00
59110;BME280;44895;47.438;18.978;2024-03-06T06:36:07;100033.00;;;8.18;100.00
59110;BME280;44895;47.438;18.978;2024-03-06T06:39:10;100028.22;;;8.89;100.00
59110;BME280;44895;47.438;18.978;2024-03-06T06:42:15;100029.00;;;9.24;100.00
59110;BME280;44895;47.438;18.978;2024-03-06T06:45:20;100028.41;;;9.81;100.00
59110;BME280;44895;47.438;18.978;2024-03-06T06:48:24;100039.88;;;10.59;100.00
59110;BME280;44895;47.438;18.978;2024-03-06T06:51:28;100029.34;;;11.04;100.00
59110;BME280;44895;47.438;18.978;2024-03-06T06:54:32;100037.81;;;11.50;100.00
59110;BME280;44895;47.438;18.978;2024-03-06T06:57:36;100028.75;;;12.10;100.00
59110;BME280;44895;47.438;18.978;2024-03-06T07:00:39;100028.41;;;12.62;100.00
59110;BME280;44895;47.438;18.978;2024-03-06T07:03:45;100037.53;;;13.34;100.00
59110;BME280;44895;47.438;18.978;2024-03-06T07:06:49;100037.47;;;13.89;100.00
59110;BME280;44895;47.438;18.978;2024-03-06T07:09:52;100036.28;;;14.74;100.00
59110;BME280;44895;47.438;18.978;2024-03-06T07:12:56;100045.25;;;14.22;100.00
59110;BME280;44895;47.438;18.978;2024-03-06T07:16:02;100046.31;;;13.54;100.00
59110;BME280;44895;47.438;18.978;2024-03-06T07:19:06;100036.75;;;13.74;100.00
59110;BME280;44895;47.438;18.978;2024-03-06T07:22:10;100038.34;;;13.66;100.00
59110;BME280;44895;47.438;18.978;2024-03-06T07:25:14;100044.38;;;13.23;100.00
59110;BME280;44895;47.438;18.978;2024-03-06T07:28:18;100047.31;;;13.04;100.00
59110;BME280;44895;47.438;18.978;2024-03-06T07:31:22;100046.50;;;12.81;100.00
59110;BME280;44895;47.438;18.978;2024-03-06T07:34:26;100042.34;;;12.61;100.00
59110;BME280;44895;47.438;18.978;2024-03-06T07:37:30;100038.56;;;12.70;100.00
59110;BME280;44895;47.438;18.978;2024-03-06T07:40:34;100051.56;;;12.73;100.00
59110;BME280;44895;47.438;18.978;2024-03-06T07:43:37;100052.47;;;12.46;100.00
59110;BME280;44895;47.438;18.978;2024-03-06T07:46:42;100053.91;;;12.30;100.00
59110;BME280;44895;47.438;18.978;2024-03-06T07:49:45;100051.16;;;12.44;100.00
59110;BME280;44895;47.438;18.978;2024-03-06T07:52:49;100059.34;;;12.44;100.00
59110;BME280;44895;47.438;18.978;2024-03-06T07:55:53;100061.78;;;12.45;100.00
59110;BME280;44895;47.438;18.978;2024-03-06T07:58:56;100061.69;;;12.73;100.00
59110;BME280;44895;47.438;18.978;2024-03-06T08:02:00;100056.88;;;12.56;100.00
59110;BME280;44895;47.438;18.978;2024-03-06T08:05:04;100058.53;;;12.80;100.00
59110;BME280;44895;47.438;18.978;2024-03-06T08:08:08;100062.78;;;12.72;100.00
59110;BME280;44895;47.438;18.978;2024-03-06T08:11:13;100066.31;;;12.95;100.00
59110;BME280;44895;47.438;18.978;2024-03-06T08:14:17;100065.41;;;13.00;100.00
59110;BME280;44895;47.438;18.978;2024-03-06T08:17:20;100064.84;;;12.89;100.00
59110;BME280;44895;47.438;18.978;2024-03-06T08:20:24;100064.25;;;13.24;100.00
59110;BME280;44895;47.438;18.978;2024-03-06T08:23:28;100076.13;;;12.96;100.00
59110;BME280;44895;47.438;18.978;2024-03-06T08:26:32;100060.22;;;13.21;100.00
59110;BME280;44895;47.438;18.978;2024-03-06T08:29:36;100072.41;;;13.78;100.00
59110;BME280;44895;47.438;18.978;2024-03-06T08:32:40;100069.97;;;13.67;100.00
59110;BME280;44895;47.438;18.978;2024-03-06T08:35:43;100069.41;;;13.88;100.00
59110;BME280;44895;47.438;18.978;2024-03-06T08:38:48;100061.66;;;15.65;100.00
59110;BME280;44895;47.438;18.978;2024-03-06T08:41:52;100055.22;;;16.30;100.00
59110;BME280;44895;47.438;18.978;2024-03-06T08:44:56;100060.19;;;17.12;84.69
59110;BME280;44895;47.438;18.978;2024-03-06T08:48:00;100067.19;;;16.89;82.55
59110;BME280;44895;47.438;18.978;2024-03-06T08:51:04;100070.66;;;16.98;80.25
59110;BME280;44895;47.438;18.978;2024-03-06T08:54:14;100058.13;;;17.43;81.18
59110;BME280;44895;47.438;18.978;2024-03-06T08:57:18;100053.69;;;17.88;72.71
59110;BME280;44895;47.438;18.978;2024-03-06T09:00:24;100049.22;;;19.02;67.52
59110;BME280;44895;47.438;18.978;2024-03-06T09:03:30;100052.81;;;19.50;61.94
59110;BME280;44895;47.438;18.978;2024-03-06T09:06:33;100067.97;;;19.12;60.55
59110;BME280;44895;47.438;18.978;2024-03-06T09:09:37;100073.03;;;18.29;61.72
59110;BME280;44895;47.438;18.978;2024-03-06T09:12:41;100063.75;;;18.08;61.50
59110;BME280;44895;47.438;18.978;2024-03-06T09:15:45;100070.53;;;17.28;63.76
59110;BME280;44895;47.438;18.978;2024-03-06T09:18:49;100068.00;;;18.18;65.82
59110;BME280;44895;47.438;18.978;2024-03-06T09:21:53;100069.00;;;19.07;63.05
59110;BME280;44895;47.438;18.978;2024-03-06T09:24:56;100061.50;;;18.51;60.99
59110;BME280;44895;47.438;18.978;2024-03-06T09:28:00;100058.97;;;18.58;63.04
59110;BME280;44895;47.438;18.978;2024-03-06T09:31:08;100054.38;;;17.85;64.24
59110;BME280;44895;47.438;18.978;2024-03-06T09:34:11;100065.00;;;18.23;61.68
59110;BME280;44895;47.438;18.978;2024-03-06T09:37:15;100062.97;;;19.02;58.84
59110;BME280;44895;47.438;18.978;2024-03-06T09:40:21;100054.81;;;20.17;58.79
59110;BME280;44895;47.438;18.978;2024-03-06T09:43:25;100048.03;;;20.50;53.75
59110;BME280;44895;47.438;18.978;2024-03-06T09:46:29;100042.06;;;20.84;54.37
59110;BME280;44895;47.438;18.978;2024-03-06T09:49:33;100048.50;;;19.05;55.85
59110;BME280;44895;47.438;18.978;2024-03-06T09:52:39;100048.28;;;18.16;60.94
59110;BME280;44895;47.438;18.978;2024-03-06T09:55:46;100038.78;;;18.14;61.73
59110;BME280;44895;47.438;18.978;2024-03-06T09:58:50;100043.50;;;17.64;64.10
59110;BME280;44895;47.438;18.978;2024-03-06T10:01:56;100033.88;;;17.70;68.24
59110;BME280;44895;47.438;18.978;2024-03-06T10:04:59;100032.88;;;17.16;69.84
59110;BME280;44895;47.438;18.978;2024-03-06T10:08:04;100046.38;;;16.67;69.08
59110;BME280;44895;47.438;18.978;2024-03-06T10:11:08;100036.34;;;16.07;75.46
59110;BME280;44895;47.438;18.978;2024-03-06T10:14:13;100038.53;;;16.23;78.77
59110;BME280;44895;47.438;18.978;2024-03-06T10:17:21;100039.13;;;15.98;81.23
59110;BME280;44895;47.438;18.978;2024-03-06T10:20:35;100030.47;;;15.96;81.37
59110;BME280;44895;47.438;18.978;2024-03-06T10:23:39;100035.03;;;16.35;82.79
59110;BME280;44895;47.438;18.978;2024-03-06T10:26:42;100037.31;;;15.81;84.74
59110;BME280;44895;47.438;18.978;2024-03-06T10:30:01;100029.53;;;16.13;86.11
59110;BME280;44895;47.438;18.978;2024-03-06T10:33:04;100026.53;;;16.27;86.30
59110;BME280;44895;47.438;18.978;2024-03-06T10:36:11;100031.63;;;15.87;82.30
59110;BME280;44895;47.438;18.978;2024-03-06T10:39:16;100030.13;;;15.59;89.60
59110;BME280;44895;47.438;18.978;2024-03-06T10:42:24;100021.59;;;15.61;89.46
59110;BME280;44895;47.438;18.978;2024-03-06T10:48:49;100015.22;;;15.78;84.96
59110;BME280;44895;47.438;18.978;2024-03-06T10:55:03;100007.38;;;16.49;87.03
59110;BME280;44895;47.438;18.978;2024-03-06T10:58:08;99997.66;;;16.51;80.42
59110;BME280;44895;47.438;18.978;2024-03-06T11:01:12;99997.09;;;16.79;80.36
59110;BME280;44895;47.438;18.978;2024-03-06T11:04:16;99998.81;;;16.50;76.28
59110;BME280;44895;47.438;18.978;2024-03-06T11:07:20;99996.50;;;16.73;74.00
59110;BME280;44895;47.438;18.978;2024-03-06T11:10:31;99983.97;;;17.55;75.53
59110;BME280;44895;47.438;18.978;2024-03-06T11:13:39;99980.31;;;17.51;74.97
59110;BME280;44895;47.438;18.978;2024-03-06T11:17:00;99980.50;;;16.97;73.16
59110;BME280;44895;47.438;18.978;2024-03-06T11:23:13;99974.47;;;16.49;73.71
59110;BME280;44895;47.438;18.978;2024-03-06T11:26:17;99973.75;;;16.73;78.65
59110;BME280;44895;47.438;18.978;2024-03-06T11:29:23;99962.78;;;16.39;71.08
59110;BME280;44895;47.438;18.978;2024-03-06T11:32:28;99960.19;;;16.01;76.20
59110;BME280;44895;47.438;18.978;2024-03-06T11:35:33;99958.84;;;16.07;76.09
59110;BME280;44895;47.438;18.978;2024-03-06T11:38:39;99960.66;;;16.03;74.91
59110;BME280;44895;47.438;18.978;2024-03-06T11:44:54;99947.56;;;16.29;77.77
59110;BME280;44895;47.438;18.978;2024-03-06T11:48:02;99954.81;;;16.46;80.15
59110;BME280;44895;47.438;18.978;2024-03-06T11:51:06;99958.84;;;16.28;77.43
59110;BME280;44895;47.438;18.978;2024-03-06T11:54:10;99940.28;;;15.91;76.74
59110;BME280;44895;47.438;18.978;2024-03-06T11:57:14;99940.00;;;15.84;76.38
59110;BME280;44895;47.438;18.978;2024-03-06T12:00:23;99945.00;;;15.82;76.84
59110;BME280;44895;47.438;18.978;2024-03-06T12:03:27;99943.88;;;15.83;75.46
59110;BME280;44895;47.438;18.978;2024-03-06T12:06:32;99940.03;;;16.05;73.65
59110;BME280;44895;47.438;18.978;2024-03-06T12:09:38;99942.34;;;16.16;77.43
59110;BME280;44895;47.438;18.978;2024-03-06T12:13:01;99940.59;;;16.32;78.03
59110;BME280;44895;47.438;18.978;2024-03-06T12:16:06;99941.66;;;16.19;82.59
59110;BME280;44895;47.438;18.978;2024-03-06T12:19:13;99941.88;;;15.92;80.76
59110;BME280;44895;47.438;18.978;2024-03-06T12:22:17;99922.44;;;15.85;77.51
59110;BME280;44895;47.438;18.978;2024-03-06T12:25:24;99923.94;;;16.04;80.08
59110;BME280;44895;47.438;18.978;2024-03-06T12:28:29;99927.13;;;16.06;80.87
59110;BME280;44895;47.438;18.978;2024-03-06T12:31:36;99924.16;;;16.32;79.31
59110;BME280;44895;47.438;18.978;2024-03-06T12:34:39;99924.72;;;16.25;81.84
59110;BME280;44895;47.438;18.978;2024-03-06T12:37:43;99916.13;;;16.48;81.94
59110;BME280;44895;47.438;18.978;2024-03-06T12:40:47;99921.84;;;16.22;74.80
59110;BME280;44895;47.438;18.978;2024-03-06T12:43:51;99916.28;;;16.30;75.74
59110;BME280;44895;47.438;18.978;2024-03-06T12:46:55;99903.97;;;16.37;74.60
59110;BME280;44895;47.438;18.978;2024-03-06T12:49:58;99900.41;;;16.03;72.94
59110;BME280;44895;47.438;18.978;2024-03-06T12:53:02;99904.19;;;16.32;72.47
59110;BME280;44895;47.438;18.978;2024-03-06T12:56:07;99904.38;;;16.60;76.43
59110;BME280;44895;47.438;18.978;2024-03-06T12:59:11;99898.31;;;16.54;74.66
59110;BME280;44895;47.438;18.978;2024-03-06T13:02:15;99899.59;;;16.69;74.63
59110;BME280;44895;47.438;18.978;2024-03-06T13:05:19;99894.88;;;16.91;76.07
59110;BME280;44895;47.438;18.978;2024-03-06T13:08:22;99902.78;;;16.92;75.21
59110;BME280;44895;47.438;18.978;2024-03-06T13:11:26;99899.34;;;16.50;73.38
59110;BME280;44895;47.438;18.978;2024-03-06T13:14:30;99896.34;;;16.21;79.44
59110;BME280;44895;47.438;18.978;2024-03-06T13:17:34;99892.69;;;15.96;80.50
59110;BME280;44895;47.438;18.978;2024-03-06T13:20:38;99886.28;;;16.13;81.91
59110;BME280;44895;47.438;18.978;2024-03-06T13:23:43;99897.19;;;16.01;83.12
59110;BME280;44895;47.438;18.978;2024-03-06T13:26:46;99880.66;;;15.67;81.84
59110;BME280;44895;47.438;18.978;2024-03-06T13:29:50;99888.44;;;15.86;80.84
59110;BME280;44895;47.438;18.978;2024-03-06T13:32:54;99880.97;;;15.65;81.27
59110;BME280;44895;47.438;18.978;2024-03-06T13:35:58;99881.56;;;15.50;77.20
59110;BME280;44895;47.438;18.978;2024-03-06T13:39:02;99875.69;;;15.60;80.63
59110;BME280;44895;47.438;18.978;2024-03-06T13:42:06;99871.19;;;15.64;84.94
59110;BME280;44895;47.438;18.978;2024-03-06T13:45:10;99868.06;;;15.75;84.09
59110;BME280;44895;47.438;18.978;2024-03-06T13:48:17;99868.50;;;15.77;88.66
59110;BME280;44895;47.438;18.978;2024-03-06T13:51:22;99868.16;;;15.87;89.66
59110;BME280;44895;47.438;18.978;2024-03-06T13:54:26;99854.06;;;15.97;83.96
59110;BME280;44895;47.438;18.978;2024-03-06T13:57:31;99855.38;;;15.91;81.35
59110;BME280;44895;47.438;18.978;2024-03-06T14:00:37;99847.81;;;15.88;83.03
59110;BME280;44895;47.438;18.978;2024-03-06T14:03:41;99848.31;;;15.90;81.82
59110;BME280;44895;47.438;18.978;2024-03-06T14:06:44;99848.44;;;15.94;81.47
59110;BME280;44895;47.438;18.978;2024-03-06T14:09:51;99840.44;;;15.89;81.83
59110;BME280;44895;47.438;18.978;2024-03-06T14:12:55;99833.03;;;15.80;85.23
59110;BME280;44895;47.438;18.978;2024-03-06T14:16:00;99833.06;;;16.02;87.54
59110;BME280;44895;47.438;18.978;2024-03-06T14:19:04;99834.03;;;15.85;87.15
59110;BME280;44895;47.438;18.978;2024-03-06T14:22:08;99840.06;;;15.69;89.18
59110;BME280;44895;47.438;18.978;2024-03-06T14:25:12;99844.88;;;15.72;100.00
59110;BME280;44895;47.438;18.978;2024-03-06T14:28:16;99837.06;;;15.62;100.00
59110;BME280;44895;47.438;18.978;2024-03-06T14:31:20;99849.81;;;15.37;100.00
59110;BME280;44895;47.438;18.978;2024-03-06T14:34:24;99847.72;;;15.33;100.00
59110;BME280;44895;47.438;18.978;2024-03-06T14:37:28;99847.22;;;14.54;100.00
59110;BME280;44895;47.438;18.978;2024-03-06T14:40:31;99858.06;;;14.24;100.00
59110;BME280;44895;47.438;18.978;2024-03-06T14:43:37;99858.53;;;14.26;100.00
59110;BME280;44895;47.438;18.978;2024-03-06T14:46:44;99857.91;;;13.68;100.00
59110;BME280;44895;47.438;18.978;2024-03-06T14:49:48;99854.00;;;13.34;100.00
59110;BME280;44895;47.438;18.978;2024-03-06T14:52:51;99853.22;;;12.93;100.00
59110;BME280;44895;47.438;18.978;2024-03-06T14:55:56;99853.16;;;12.76;100.00
59110;BME280;44895;47.438;18.978;2024-03-06T14:59:00;99856.13;;;12.65;100.00
59110;BME280;44895;47.438;18.978;2024-03-06T15:02:03;99859.81;;;12.61;100.00
59110;BME280;44895;47.438;18.978;2024-03-06T15:05:07;99864.91;;;12.31;100.00
59110;BME280;44895;47.438;18.978;2024-03-06T15:08:11;99868.09;;;12.24;100.00
59110;BME280;44895;47.438;18.978;2024-03-06T15:11:15;99864.13;;;12.30;100.00
59110;BME280;44895;47.438;18.978;2024-03-06T15:14:19;99858.56;;;12.35;100.00
59110;BME280;44895;47.438;18.978;2024-03-06T15:17:24;99864.72;;;12.27;100.00
59110;BME280;44895;47.438;18.978;2024-03-06T15:20:31;99860.16;;;12.14;100.00
59110;BME280;44895;47.438;18.978;2024-03-06T15:23:36;99860.59;;;12.07;100.00
59110;BME280;44895;47.438;18.978;2024-03-06T15:26:40;99851.69;;;12.15;100.00
59110;BME280;44895;47.438;18.978;2024-03-06T15:29:44;99856.78;;;11.94;100.00
59110;BME280;44895;47.438;18.978;2024-03-06T15:32:48;99854.41;;;11.79;100.00
59110;BME280;44895;47.438;18.978;2024-03-06T15:35:52;99857.50;;;12.00;100.00
59110;BME280;44895;47.438;18.978;2024-03-06T15:38:56;99851.25;;;11.99;100.00
59110;BME280;44895;47.438;18.978;2024-03-06T15:42:00;99854.69;;;11.91;100.00
59110;BME280;44895;47.438;18.978;2024-03-06T15:45:04;99854.28;;;11.98;100.00
59110;BME280;44895;47.438;18.978;2024-03-06T15:48:08;99859.94;;;11.87;100.00
59110;BME280;44895;47.438;18.978;2024-03-06T15:51:16;99853.19;;;11.99;100.00
59110;BME280;44895;47.438;18.978;2024-03-06T15:54:21;99869.28;;;11.95;100.00
59110;BME280;44895;47.438;18.978;2024-03-06T15:57:25;99865.47;;;11.96;100.00
59110;BME280;44895;47.438;18.978;2024-03-06T16:00:29;99869.56;;;12.07;100.00
59110;BME280;44895;47.438;18.978;2024-03-06T16:03:33;99866.22;;;12.11;100.00
59110;BME280;44895;47.438;18.978;2024-03-06T16:06:36;99861.78;;;12.15;100.00